Terminal Aerodrome Forecast
Issued by NWS

Home | Current Version | Previous Version | Text Only | Print | Product List | Glossary On
Versions: 1 2 3 4 5 6 7 8 9 10 11 12
337
FTUS44 KLUB 231129
TAFCDS
TAF
KCDS 231129Z 2312/2412 15011KT P6SM FEW250 WS020/20050KT
     FM231700 18026G36KT P6SM FEW050 SCT250
     FM240100 16025KT P6SM SCT040 BKN090 PROB30 2404/2407 TSRA
      BKN040CB=

USA.gov is the U.S. government's official web portal to all federal, state and local government web resources and services.